createdAt,value
2018-12-22T00:01:13.310Z,98056.63
2018-12-22T00:03:44.328Z,98051.91
2018-12-22T00:06:12.703Z,98054.19
2018-12-22T00:08:40.897Z,98052.44
2018-12-22T00:11:09.032Z,98057.29
2018-12-22T00:13:36.752Z,98063.95
2018-12-22T00:16:04.927Z,98070.48
2018-12-22T00:18:34.503Z,98068.11
2018-12-22T00:21:05.253Z,98065.50
2018-12-22T00:23:35.432Z,98063.55
2018-12-22T00:26:04.039Z,98066.44
2018-12-22T00:28:31.891Z,98057.45
2018-12-22T00:30:59.561Z,98059.84
2018-12-22T00:33:27.394Z,98063.38
2018-12-22T00:35:55.176Z,98060.30
2018-12-22T00:38:23.038Z,98059.73
2018-12-22T00:40:50.849Z,98058.31
2018-12-22T00:43:18.722Z,98061.02
2018-12-22T00:45:47.235Z,98058.52
2018-12-22T00:48:15.322Z,98059.88
2018-12-22T00:50:43.087Z,98057.23
2018-12-22T00:53:10.724Z,98051.56
2018-12-22T00:55:38.448Z,98054.70
2018-12-22T00:58:06.126Z,98059.05
2018-12-22T01:00:33.636Z,98059.26
2018-12-22T01:03:01.603Z,98061.28
2018-12-22T01:05:29.540Z,98059.76
2018-12-22T01:07:58.595Z,98069.30
2018-12-22T01:10:26.254Z,98072.53
2018-12-22T01:12:54.072Z,98081.41
2018-12-22T01:15:21.859Z,98075.67
2018-12-22T01:17:49.600Z,98070.59
2018-12-22T01:20:17.688Z,98072.27
2018-12-22T01:22:45.481Z,98077.14
2018-12-22T01:25:13.019Z,98078.13
2018-12-22T01:27:41.229Z,98068.07
2018-12-22T01:30:09.066Z,98073.47
2018-12-22T01:32:36.845Z,98072.13
2018-12-22T01:35:05.687Z,98068.42
2018-12-22T01:37:34.224Z,98073.20
2018-12-22T01:40:01.810Z,98073.64
2018-12-22T01:42:29.665Z,98077.59
2018-12-22T01:44:57.269Z,98074.43
2018-12-22T01:47:24.991Z,98085.50
2018-12-22T01:49:52.553Z,98078.08
2018-12-22T01:52:20.282Z,98078.84
2018-12-22T01:54:47.882Z,98081.02
2018-12-22T01:57:15.427Z,98080.29
2018-12-22T01:59:43.111Z,98077.34
2018-12-22T02:02:10.779Z,98079.41
2018-12-22T02:04:38.405Z,98084.67
2018-12-22T02:07:06.601Z,98079.41
2018-12-22T02:09:34.587Z,98081.11
2018-12-22T02:12:02.734Z,98084.19
2018-12-22T02:14:30.992Z,98083.75
2018-12-22T02:16:59.047Z,98081.95
2018-12-22T02:19:26.890Z,98079.28
2018-12-22T02:21:55.287Z,98073.08
2018-12-22T02:24:23.807Z,98074.89
2018-12-22T02:26:51.715Z,98079.34
2018-12-22T02:29:19.725Z,98078.38
2018-12-22T02:31:47.361Z,98075.16
2018-12-22T02:34:15.152Z,98080.04
2018-12-22T02:36:43.305Z,98078.35
2018-12-22T02:39:10.863Z,98078.32
2018-12-22T02:41:38.508Z,98056.80
2018-12-22T02:44:06.257Z,98063.39
2018-12-22T02:46:33.806Z,98052.80
2018-12-22T02:49:01.366Z,98054.25
2018-12-22T02:51:29.019Z,98056.98
2018-12-22T02:53:56.612Z,98059.63
2018-12-22T02:56:24.221Z,98053.86
2018-12-22T02:58:51.896Z,98053.03
2018-12-22T03:01:19.546Z,98059.89
2018-12-22T03:03:47.127Z,98066.02
2018-12-22T03:06:14.807Z,98066.09
2018-12-22T03:08:42.521Z,98076.67
2018-12-22T03:11:10.099Z,98070.08
2018-12-22T03:13:37.744Z,98060.72
2018-12-22T03:16:05.507Z,98049.08
2018-12-22T03:18:33.114Z,98053.98
2018-12-22T03:21:00.717Z,98050.48
2018-12-22T03:23:28.293Z,98048.16
2018-12-22T03:25:55.837Z,98037.08
2018-12-22T03:28:23.353Z,98041.43
2018-12-22T03:30:50.856Z,98047.33
2018-12-22T03:33:18.375Z,98050.55
2018-12-22T03:35:46.043Z,98052.42
2018-12-22T03:38:13.884Z,98039.44
2018-12-22T03:40:41.420Z,98036.00
2018-12-22T03:43:09.131Z,98039.95
2018-12-22T03:45:36.760Z,98043.11
2018-12-22T03:48:04.554Z,98030.45
2018-12-22T03:50:32.553Z,98037.47
2018-12-22T03:53:00.792Z,98036.68
2018-12-22T03:55:28.351Z,98034.47
2018-12-22T03:57:56.087Z,98020.37
2018-12-22T04:00:24.377Z,98026.13
2018-12-22T04:02:53.065Z,98026.13
2018-12-22T04:05:20.920Z,98032.84
2018-12-22T04:07:48.861Z,98030.33
2018-12-22T04:10:16.638Z,98026.96
2018-12-22T04:12:44.478Z,98031.98
2018-12-22T04:15:12.364Z,98025.33
2018-12-22T04:17:39.915Z,98016.20
2018-12-22T04:20:08.024Z,98025.77
2018-12-22T04:22:36.120Z,98018.97
2018-12-22T04:25:04.357Z,98004.37
2018-12-22T04:27:32.453Z,98003.33
2018-12-22T04:30:00.223Z,98017.05
2018-12-22T04:32:27.948Z,98018.61
2018-12-22T04:34:55.721Z,98017.20
2018-12-22T04:37:23.323Z,98020.33
2018-12-22T04:39:51.609Z,98018.91
2018-12-22T04:42:19.145Z,98011.13
2018-12-22T04:44:46.700Z,98014.86
2018-12-22T04:47:14.233Z,98016.88
2018-12-22T04:49:41.905Z,98012.91
2018-12-22T04:52:09.559Z,98011.95
2018-12-22T04:54:37.217Z,98015.42
2018-12-22T04:57:05.015Z,98026.92
2018-12-22T04:59:32.538Z,98019.48
2018-12-22T05:02:00.585Z,98008.83
2018-12-22T05:04:28.262Z,98012.35
2018-12-22T05:06:56.033Z,98015.35
2018-12-22T05:09:23.619Z,98018.41
2018-12-22T05:11:51.385Z,98025.73
2018-12-22T05:14:19.081Z,98031.41
2018-12-22T05:16:46.703Z,98026.36
2018-12-22T05:19:15.607Z,98033.24
2018-12-22T05:21:43.233Z,98041.84
2018-12-22T05:24:10.831Z,98042.17
2018-12-22T05:26:38.381Z,98036.62
2018-12-22T05:29:05.945Z,98044.86
2018-12-22T05:31:33.503Z,98056.63
2018-12-22T05:34:01.029Z,98046.69
2018-12-22T05:36:28.637Z,98053.22
2018-12-22T05:38:56.365Z,98057.32
2018-12-22T05:41:23.980Z,98053.00
2018-12-22T05:43:51.709Z,98052.74
2018-12-22T05:46:19.337Z,98061.53
2018-12-22T05:48:47.040Z,98054.03
2018-12-22T05:51:14.581Z,98062.66
2018-12-22T05:53:42.621Z,98056.30
2018-12-22T05:56:10.251Z,98055.22
2018-12-22T05:58:37.815Z,98070.50
2018-12-22T06:01:05.434Z,98072.02
2018-12-22T06:03:33.852Z,98082.13
2018-12-22T06:06:01.666Z,98068.20
2018-12-22T06:08:29.590Z,98079.75
2018-12-22T06:10:57.234Z,98075.16
2018-12-22T06:13:24.765Z,98091.72
2018-12-22T06:15:52.269Z,98084.45
2018-12-22T06:18:19.828Z,98118.82
2018-12-22T06:20:47.456Z,98120.35
2018-12-22T06:23:14.982Z,98120.20
2018-12-22T06:25:42.703Z,98107.22
2018-12-22T06:28:10.355Z,98130.02
2018-12-22T06:30:38.171Z,98144.93
2018-12-22T06:33:06.009Z,98158.55
2018-12-22T06:35:33.574Z,98148.78
2018-12-22T06:38:01.359Z,98164.78
2018-12-22T06:40:29.049Z,98176.75
2018-12-22T06:42:56.703Z,98165.80
2018-12-22T06:45:24.374Z,98177.50
2018-12-22T06:47:53.672Z,98191.51
2018-12-22T06:50:21.664Z,98194.37
2018-12-22T06:52:49.566Z,98195.06
2018-12-22T06:55:17.291Z,98207.05
2018-12-22T06:57:45.126Z,98208.86
2018-12-22T07:00:17.656Z,98205.44
2018-12-22T07:02:42.738Z,98207.22
2018-12-22T07:05:10.292Z,98203.27
2018-12-22T07:07:38.057Z,98202.37
2018-12-22T07:10:06.923Z,98194.98
2018-12-22T07:12:34.585Z,98203.36
2018-12-22T07:15:02.491Z,98201.20
2018-12-22T07:17:30.351Z,98217.41
2018-12-22T07:19:58.307Z,98226.96
2018-12-22T07:22:26.030Z,98229.91
2018-12-22T07:24:54.437Z,98239.05
2018-12-22T07:27:22.086Z,98253.91
2018-12-22T07:29:49.920Z,98255.94
2018-12-22T07:32:20.476Z,98261.56
2018-12-22T07:34:50.035Z,98265.91
2018-12-22T07:37:18.656Z,98267.67
2018-12-22T07:39:47.766Z,98281.34
2018-12-22T07:42:15.735Z,98279.23
2018-12-22T07:44:43.354Z,98281.03
2018-12-22T07:47:10.944Z,98296.02
2018-12-22T07:49:38.628Z,98313.17
2018-12-22T07:52:06.209Z,98323.83
2018-12-22T07:54:33.761Z,98344.69
2018-12-22T07:57:01.343Z,98332.52
2018-12-22T07:59:28.982Z,98328.73
2018-12-22T08:01:56.882Z,98334.27
2018-12-22T08:04:24.942Z,98333.48
2018-12-22T08:06:53.104Z,98344.43
2018-12-22T08:09:20.735Z,98328.23
2018-12-22T08:11:48.664Z,98315.53
2018-12-22T08:14:16.373Z,98306.39
2018-12-22T08:16:44.043Z,98325.15
2018-12-22T08:19:11.779Z,98336.12
2018-12-22T08:21:39.311Z,98336.05
2018-12-22T08:24:06.969Z,98331.19
2018-12-22T08:26:34.573Z,98329.78
2018-12-22T08:29:02.292Z,98336.70
2018-12-22T08:31:29.821Z,98326.48
2018-12-22T08:33:57.401Z,98336.40
2018-12-22T08:36:25.251Z,98340.27
2018-12-22T08:38:53.159Z,98338.33
2018-12-22T08:41:20.908Z,98332.14
2018-12-22T08:43:48.468Z,98353.02
2018-12-22T08:46:16.010Z,98354.67
2018-12-22T08:48:44.041Z,98361.50
2018-12-22T08:51:11.903Z,98365.84
2018-12-22T08:53:39.485Z,98385.17
2018-12-22T08:56:07.088Z,98341.25
2018-12-22T08:58:34.723Z,98384.03
2018-12-22T09:01:02.340Z,98387.96
2018-12-22T09:03:30.017Z,98395.39
2018-12-22T09:05:58.697Z,98409.42
2018-12-22T09:08:26.405Z,98395.72
2018-12-22T09:10:54.070Z,98405.73
2018-12-22T09:13:21.621Z,98420.59
2018-12-22T09:15:49.261Z,98420.57
2018-12-22T09:18:16.823Z,98426.70
2018-12-22T09:20:44.468Z,98431.52
2018-12-22T09:23:12.075Z,98447.34
2018-12-22T09:25:39.770Z,98456.70
2018-12-22T09:28:07.313Z,98482.73
2018-12-22T09:30:34.972Z,98479.89
2018-12-22T09:33:02.614Z,98465.59
2018-12-22T09:35:30.148Z,98463.58
2018-12-22T09:37:57.674Z,98470.70
2018-12-22T09:40:25.460Z,98479.58
2018-12-22T09:42:53.060Z,98486.17
2018-12-22T09:45:20.601Z,98501.57
2018-12-22T09:47:48.242Z,98506.86
2018-12-22T09:50:15.805Z,98512.57
2018-12-22T09:52:43.646Z,98519.94
2018-12-22T09:55:11.181Z,98528.69
2018-12-22T09:57:38.780Z,98529.95
2018-12-22T10:00:07.806Z,98537.86
2018-12-22T10:02:35.457Z,98511.85
2018-12-22T10:05:03.315Z,98532.86
2018-12-22T10:07:30.932Z,98528.81
2018-12-22T10:09:58.568Z,98536.58
2018-12-22T10:12:26.348Z,98543.56
2018-12-22T10:14:54.123Z,98536.83
2018-12-22T10:17:21.633Z,98531.41
2018-12-22T10:19:49.235Z,98531.87
2018-12-22T10:22:16.890Z,98530.27
2018-12-22T10:24:44.509Z,98542.06
2018-12-22T10:27:12.450Z,98543.71
2018-12-22T10:29:40.041Z,98536.10
2018-12-22T10:32:08.008Z,98527.65
2018-12-22T10:34:35.603Z,98538.46
2018-12-22T10:37:03.320Z,98533.57
2018-12-22T10:39:31.312Z,98536.14
2018-12-22T10:41:58.937Z,98545.72
2018-12-22T10:44:26.804Z,98535.04
2018-12-22T10:46:54.518Z,98527.95
2018-12-22T10:49:22.085Z,98538.02
2018-12-22T10:51:49.705Z,98529.42
2018-12-22T10:54:17.313Z,98534.22
2018-12-22T10:56:45.089Z,98536.38
2018-12-22T10:59:12.825Z,98532.91
2018-12-22T11:01:40.409Z,98536.00
2018-12-22T11:04:08.958Z,98534.68
2018-12-22T11:06:36.806Z,98522.88
2018-12-22T11:09:06.172Z,98537.03
2018-12-22T11:11:34.006Z,98543.63
2018-12-22T11:14:01.689Z,98552.56
2018-12-22T11:16:29.411Z,98534.44
2018-12-22T11:18:57.314Z,98541.62
2018-12-22T11:21:25.021Z,98515.42
2018-12-22T11:23:52.606Z,98522.44
2018-12-22T11:26:20.492Z,98535.72
2018-12-22T11:28:48.328Z,98515.96
2018-12-22T11:31:16.173Z,98526.11
2018-12-22T11:33:46.349Z,98522.94
2018-12-22T11:36:14.020Z,98527.13
2018-12-22T11:38:41.842Z,98529.59
2018-12-22T11:41:09.519Z,98532.59
2018-12-22T11:43:37.166Z,98549.74
2018-12-22T11:46:04.716Z,98566.55
2018-12-22T11:49:35.574Z,98577.87
2018-12-22T11:52:03.240Z,98587.54
2018-12-22T11:54:31.020Z,98565.97
2018-12-22T11:56:59.281Z,98568.87
2018-12-22T11:59:26.974Z,98564.12
2018-12-22T12:01:54.921Z,98545.31
2018-12-22T12:04:22.519Z,98551.78
2018-12-22T12:06:50.144Z,98545.95
2018-12-22T12:09:17.766Z,98555.84
2018-12-22T12:11:45.882Z,98541.77
2018-12-22T12:14:13.387Z,98547.36
2018-12-22T12:17:25.035Z,98550.34
2018-12-22T12:19:53.094Z,98567.33
2018-12-22T12:22:20.790Z,98582.66
2018-12-22T12:24:48.452Z,98571.11
2018-12-22T12:27:16.044Z,98575.65
2018-12-22T12:29:43.761Z,98592.43
2018-12-22T12:32:11.301Z,98585.28
2018-12-22T12:34:38.897Z,98567.52
2018-12-22T12:37:06.540Z,98584.20
2018-12-22T12:39:34.099Z,98580.63
2018-12-22T12:42:19.381Z,98578.78
2018-12-22T12:44:58.485Z,98590.48
2018-12-22T12:47:26.381Z,98580.77
2018-12-22T12:49:54.033Z,98577.86
2018-12-22T12:52:21.661Z,98593.13
2018-12-22T12:54:49.244Z,98582.83
2018-12-22T12:57:17.135Z,98585.58
2018-12-22T12:59:44.779Z,98592.09
2018-12-22T13:02:12.973Z,98589.13
2018-12-22T13:04:40.737Z,98585.97
2018-12-22T13:07:08.770Z,98598.63
2018-12-22T13:09:36.331Z,98615.08
2018-12-22T13:12:06.674Z,98611.77
2018-12-22T13:14:34.261Z,98610.58
2018-12-22T13:17:01.896Z,98611.48
2018-12-22T13:19:29.484Z,98608.96
2018-12-22T13:21:57.136Z,98617.55
2018-12-22T13:24:24.680Z,98617.95
2018-12-22T13:26:52.393Z,98614.77
2018-12-22T13:29:19.990Z,98632.61
2018-12-22T13:31:47.632Z,98617.78
2018-12-22T13:34:15.341Z,98627.60
2018-12-22T13:36:42.934Z,98605.14
2018-12-22T13:39:12.002Z,98606.23
2018-12-22T13:41:39.618Z,98627.47
2018-12-22T13:44:07.353Z,98624.91
2018-12-22T13:46:35.149Z,98634.27
2018-12-22T13:49:02.982Z,98647.45
2018-12-22T13:51:30.719Z,98642.63
2018-12-22T13:53:58.386Z,98651.84
2018-12-22T13:56:26.044Z,98647.49
2018-12-22T13:58:53.965Z,98657.13
2018-12-22T14:01:22.394Z,98663.36
2018-12-22T14:03:50.713Z,98660.63
2018-12-22T14:06:35.931Z,98664.56
2018-12-22T14:09:06.840Z,98661.73
2018-12-22T14:11:34.621Z,98665.54
2018-12-22T14:14:02.185Z,98662.88
2018-12-22T14:16:32.333Z,98659.36
2018-12-22T14:19:02.968Z,98669.34
2018-12-22T14:21:30.589Z,98682.45
2018-12-22T14:24:01.224Z,98684.86
2018-12-22T14:26:30.013Z,98681.70
2018-12-22T14:28:57.821Z,98675.05
2018-12-22T14:31:25.492Z,98682.25
2018-12-22T14:33:54.946Z,98682.91
2018-12-22T14:36:22.501Z,98669.58
2018-12-22T14:38:50.021Z,98664.89
2018-12-22T14:41:17.567Z,98661.01
2018-12-22T14:43:45.111Z,98674.59
2018-12-22T14:46:12.676Z,98663.17
2018-12-22T14:48:40.193Z,98662.20
2018-12-22T14:51:07.810Z,98681.97
2018-12-22T14:53:35.551Z,98673.13
2018-12-22T14:56:03.313Z,98675.69
2018-12-22T14:58:32.179Z,98696.73
2018-12-22T15:00:59.853Z,98695.92
2018-12-22T15:03:27.596Z,98685.52
2018-12-22T15:05:56.314Z,98696.07
2018-12-22T15:08:23.976Z,98696.13
2018-12-22T15:10:51.519Z,98713.33
2018-12-22T15:13:19.400Z,98707.25
2018-12-22T15:15:47.271Z,98718.65
2018-12-22T15:18:14.799Z,98716.53
2018-12-22T15:20:42.395Z,98726.16
2018-12-22T15:23:11.022Z,98724.88
2018-12-22T15:25:38.595Z,98738.06
2018-12-22T15:28:06.408Z,98748.50
2018-12-22T15:30:34.040Z,98748.48
2018-12-22T15:33:01.854Z,98758.16
2018-12-22T15:35:29.705Z,98770.94
2018-12-22T15:37:58.636Z,98763.91
2018-12-22T15:40:26.460Z,98764.08
2018-12-22T15:42:54.306Z,98767.73
2018-12-22T15:45:21.925Z,98774.33
2018-12-22T15:47:49.508Z,98783.96
2018-12-22T15:50:18.668Z,98797.39
2018-12-22T15:52:46.570Z,98794.50
2018-12-22T15:55:14.114Z,98797.17
2018-12-22T15:57:41.806Z,98803.81
2018-12-22T16:00:10.417Z,98791.56
2018-12-22T16:02:38.183Z,98801.22
2018-12-22T16:05:06.713Z,98799.48
2018-12-22T16:07:34.313Z,98801.25
2018-12-22T16:10:02.120Z,98802.17
